Time;durP1;ratioP1;P1;durP2;ratioP2;P2;SDS_P1;SDS_P2;PMS_P1;PMS_P2;Temp;Humidity;BMP_temperature;BMP_pressure;BME280_temperature;BME280_humidity;BME280_pressure;Samples;Min_cycle;Max_cycle;Signal;HPM_P1;HPM_P2
2024/02/08 00:01:30;;;;;;;;;;;;;;;18.50;63.52;100216.84;7397907;19;1649;-71
2024/02/08 00:03:59;;;;;;;;;;;;;;;18.56;63.60;100229.66;7393552;19;1535;-71
2024/02/08 00:06:31;;;;;;;;;;;;;;;18.63;63.20;100225.41;7398019;19;1675;-81
2024/02/08 00:09:00;;;;;;;;;;;;;;;18.64;63.19;100216.41;7399460;19;1851;-80
2024/02/08 00:11:28;;;;;;;;;;;;;;;18.62;63.13;100207.66;7400802;19;1083;-80
2024/02/08 00:13:57;;;;;;;;;;;;;;;18.55;63.40;100208.38;7399282;19;1572;-80
2024/02/08 00:16:36;;;;;;;;;;;;;;;18.44;63.54;100204.91;7400026;19;1533;-80
2024/02/08 00:19:05;;;;;;;;;;;;;;;18.46;63.51;100207.41;7398148;19;1773;-81
2024/02/08 00:21:38;;;;;;;;;;;;;;;18.53;63.63;100218.41;7398140;19;1583;-80
2024/02/08 00:24:06;;;;;;;;;;;;;;;18.47;63.40;100193.06;7397175;19;1447;-81
2024/02/08 00:26:35;;;;;;;;;;;;;;;18.56;63.34;100208.25;7398543;19;1832;-80
2024/02/08 00:29:03;;;;;;;;;;;;;;;18.55;63.43;100219.09;7385372;19;1890;-80
2024/02/08 00:31:32;;;;;;;;;;;;;;;18.53;63.30;100211.19;7400608;19;1022;-80
2024/02/08 00:34:00;;;;;;;;;;;;;;;18.49;63.47;100204.47;7400554;19;1180;-80
2024/02/08 00:36:28;;;;;;;;;;;;;;;18.42;63.76;100204.22;7400044;19;1322;-80
2024/02/08 00:39:00;;;;;;;;;;;;;;;18.46;63.63;100210.94;7399716;19;1581;-71
2024/02/08 00:41:30;;;;;;;;;;;;;;;18.48;63.71;100208.97;7403744;19;1426;-80
2024/02/08 00:43:58;;;;;;;;;;;;;;;18.40;63.79;100197.28;7408051;19;1130;-71
2024/02/08 00:46:26;;;;;;;;;;;;;;;18.36;63.78;100186.03;7405148;19;1495;-71
2024/02/08 00:48:55;;;;;;;;;;;;;;;18.45;63.64;100195.03;7403587;19;1846;-71
2024/02/08 00:51:23;;;;;;;;;;;;;;;18.46;63.54;100192.22;7399652;19;1579;-71
2024/02/08 00:53:53;;;;;;;;;;;;;;;18.40;63.55;100175.88;7404656;19;2024;-71
2024/02/08 00:56:24;;;;;;;;;;;;;;;18.43;63.61;100197.84;7400884;19;1459;-71
2024/02/08 00:58:52;;;;;;;;;;;;;;;18.43;63.40;100164.88;7404098;19;1829;-71
2024/02/08 01:01:21;;;;;;;;;;;;;;;18.49;63.33;100172.31;7404825;19;1835;-71
2024/02/08 01:03:50;;;;;;;;;;;;;;;18.38;63.55;100172.50;7405057;19;1822;-80
2024/02/08 01:06:18;;;;;;;;;;;;;;;18.48;63.44;100190.22;7403095;19;1832;-81
2024/02/08 01:08:47;;;;;;;;;;;;;;;18.42;63.42;100164.06;7407387;19;1875;-81
2024/02/08 01:11:15;;;;;;;;;;;;;;;18.49;63.16;100180.34;7404037;19;1527;-71
2024/02/08 01:13:46;;;;;;;;;;;;;;;18.33;63.82;100174.78;7405499;19;1437;-80
2024/02/08 01:16:15;;;;;;;;;;;;;;;18.47;63.46;100174.31;7402589;19;1706;-80
2024/02/08 01:18:48;;;;;;;;;;;;;;;18.47;63.43;100179.66;7404118;19;1406;-81
2024/02/08 01:21:17;;;;;;;;;;;;;;;18.45;63.33;100163.75;7403299;19;1804;-80
2024/02/08 01:23:48;;;;;;;;;;;;;;;18.46;63.46;100183.31;7402763;19;1479;-80
2024/02/08 01:26:18;;;;;;;;;;;;;;;18.45;63.22;100169.09;7405503;19;1491;-72
2024/02/08 01:28:49;;;;;;;;;;;;;;;18.33;63.64;100180.97;7393119;19;1824;-80
2024/02/08 01:31:18;;;;;;;;;;;;;;;18.24;63.76;100165.78;7405874;19;1416;-81
2024/02/08 01:33:50;;;;;;;;;;;;;;;18.42;63.25;100157.81;7402764;19;1557;-80
2024/02/08 01:36:19;;;;;;;;;;;;;;;18.38;63.40;100167.16;7405953;19;1146;-80
2024/02/08 01:38:47;;;;;;;;;;;;;;;18.38;63.54;100167.16;7406472;19;1605;-81
2024/02/08 01:41:16;;;;;;;;;;;;;;;18.33;63.66;100174.78;7406959;19;1062;-80
2024/02/08 01:43:44;;;;;;;;;;;;;;;18.24;63.78;100172.00;7406658;19;1757;-80
2024/02/08 01:46:16;;;;;;;;;;;;;;;18.31;63.75;100172.25;7407248;19;1534;-80
2024/02/08 01:48:45;;;;;;;;;;;;;;;18.41;63.45;100172.22;7405418;19;1855;-80
2024/02/08 01:51:14;;;;;;;;;;;;;;;18.32;63.74;100155.19;7405816;19;1582;-80
2024/02/08 01:53:44;;;;;;;;;;;;;;;18.28;63.90;100178.75;7404806;19;1050;-80
2024/02/08 01:56:13;;;;;;;;;;;;;;;18.34;63.92;100168.44;7405438;19;1761;-80
2024/02/08 01:58:43;;;;;;;;;;;;;;;18.43;63.50;100162.22;7407398;19;1097;-80
2024/02/08 02:01:15;;;;;;;;;;;;;;;18.36;63.24;100158.41;7407535;19;1860;-80
2024/02/08 02:03:46;;;;;;;;;;;;;;;18.33;63.59;100158.72;7405704;19;1487;-81
2024/02/08 02:06:15;;;;;;;;;;;;;;;18.25;63.96;100172.84;7405704;19;1895;-81
2024/02/08 02:08:52;;;;;;;;;;;;;;;18.19;64.10;100168.91;7405437;19;1835;-81
2024/02/08 02:11:26;;;;;;;;;;;;;;;18.17;64.08;100160.16;7405353;19;1534;-80
2024/02/08 02:13:54;;;;;;;;;;;;;;;18.21;64.03;100177.63;7406612;19;1022;-80
2024/02/08 02:16:25;;;;;;;;;;;;;;;18.22;63.85;100170.44;7405119;19;1784;-80
2024/02/08 02:18:54;;;;;;;;;;;;;;;18.26;63.54;100164.66;7403576;19;1595;-80
2024/02/08 02:21:27;;;;;;;;;;;;;;;18.25;63.70;100168.31;7400323;19;1572;-71
2024/02/08 02:23:55;;;;;;;;;;;;;;;18.37;63.41;100170.81;7402931;19;1856;-79
2024/02/08 02:26:24;;;;;;;;;;;;;;;18.42;63.34;100152.47;7401949;19;1424;-71
2024/02/08 02:28:52;;;;;;;;;;;;;;;18.38;63.29;100168.00;7397806;19;1835;-71
2024/02/08 02:31:23;;;;;;;;;;;;;;;18.31;63.47;100161.53;7401817;19;1059;-80
2024/02/08 02:33:53;;;;;;;;;;;;;;;18.30;63.58;100186.59;7406387;19;1580;-80
2024/02/08 02:36:21;;;;;;;;;;;;;;;18.36;63.39;100171.81;7404740;19;1106;-70
2024/02/08 02:38:53;;;;;;;;;;;;;;;18.23;63.71;100175.66;7403520;19;1201;-71
2024/02/08 02:41:25;;;;;;;;;;;;;;;18.28;63.85;100189.44;7404093;19;1051;-70
2024/02/08 02:43:54;;;;;;;;;;;;;;;18.33;63.61;100174.78;7400919;19;1399;-71
2024/02/08 02:46:23;;;;;;;;;;;;;;;18.35;63.59;100194.22;7402551;19;1013;-71
2024/02/08 02:48:51;;;;;;;;;;;;;;;18.33;63.37;100185.50;7402137;19;2114;-71
2024/02/08 02:51:19;;;;;;;;;;;;;;;18.27;63.80;100200.28;7401428;19;1369;-71
2024/02/08 02:53:48;;;;;;;;;;;;;;;18.26;63.64;100196.78;7400830;19;1488;-71
2024/02/08 02:56:19;;;;;;;;;;;;;;;18.11;63.81;100190.19;7397627;19;1018;-71
2024/02/08 02:58:48;;;;;;;;;;;;;;;18.18;63.84;100206.50;7398229;19;992;-71
2024/02/08 03:01:16;;;;;;;;;;;;;;;18.27;63.54;100197.63;7402472;19;1011;-71
2024/02/08 03:03:47;;;;;;;;;;;;;;;18.20;63.78;100200.00;7401261;19;1942;-70
2024/02/08 03:06:16;;;;;;;;;;;;;;;18.18;63.96;100212.69;7401447;19;1467;-71
2024/02/08 03:08:45;;;;;;;;;;;;;;;18.33;63.34;100214.94;7401558;19;1588;-70
2024/02/08 03:11:14;;;;;;;;;;;;;;;18.29;63.61;100212.53;7404064;19;1261;-81
2024/02/08 03:13:45;;;;;;;;;;;;;;;18.22;63.58;100222.16;7403601;19;1441;-80
2024/02/08 03:16:14;;;;;;;;;;;;;;;18.13;63.84;100223.00;7406315;19;1078;-80
2024/02/08 03:18:45;;;;;;;;;;;;;;;18.24;63.46;100214.81;7403815;19;1597;-80
2024/02/08 03:21:17;;;;;;;;;;;;;;;18.20;63.68;100212.56;7404615;19;1543;-71
2024/02/08 03:23:46;;;;;;;;;;;;;;;18.30;63.32;100216.03;7399478;19;1690;-71
2024/02/08 03:26:16;;;;;;;;;;;;;;;18.27;63.51;100209.16;7403663;19;1055;-71
2024/02/08 03:28:51;;;;;;;;;;;;;;;18.16;63.91;100220.00;7387636;19;1760;-71
2024/02/08 03:31:20;;;;;;;;;;;;;;;18.21;63.65;100228.47;7397915;19;1195;-71
2024/02/08 03:33:50;;;;;;;;;;;;;;;18.17;63.85;100224.41;7398569;19;1899;-71
2024/02/08 03:36:18;;;;;;;;;;;;;;;18.23;63.48;100223.81;7397968;19;1147;-71
2024/02/08 03:38:52;;;;;;;;;;;;;;;18.24;63.56;100224.66;7399529;19;1926;-71
2024/02/08 03:41:26;;;;;;;;;;;;;;;18.17;63.59;100224.41;7399583;19;1425;-71
2024/02/08 03:43:57;;;;;;;;;;;;;;;18.18;63.70;100217.19;7401641;19;1950;-80
2024/02/08 03:46:29;;;;;;;;;;;;;;;18.11;63.96;100229.50;7401754;19;1405;-80
2024/02/08 03:48:58;;;;;;;;;;;;;;;18.07;63.94;100228.91;7400524;19;1738;-80
2024/02/08 03:51:30;;;;;;;;;;;;;;;18.10;63.86;100233.97;7400547;19;1785;-81
2024/02/08 03:54:03;;;;;;;;;;;;;;;18.04;64.04;100215.81;7400862;19;1380;-80
2024/02/08 03:56:36;;;;;;;;;;;;;;;18.06;64.19;100232.56;7400246;19;996;-80
2024/02/08 03:59:12;;;;;;;;;;;;;;;18.17;63.63;100229.75;7403095;19;1010;-80
2024/02/08 04:01:43;;;;;;;;;;;;;;;18.11;63.79;100227.66;7403858;19;1185;-80
2024/02/08 04:04:16;;;;;;;;;;;;;;;18.14;63.91;100226.50;7402532;19;1454;-80
2024/02/08 04:07:01;;;;;;;;;;;;;;;18.68;62.41;100220.47;7402914;19;1519;-80
2024/02/08 04:09:36;;;;;;;;;;;;;;;19.02;61.92;100219.94;7401325;19;1868;-80
2024/02/08 04:55:34;;;;;;;;;;;;;;;19.16;61.86;100231.13;7401258;19;1809;-70
2024/02/08 04:58:03;;;;;;;;;;;;;;;19.21;61.73;100228.84;7399423;19;1570;-78
2024/02/08 05:00:32;;;;;;;;;;;;;;;19.21;61.68;100235.03;7396865;19;1895;-74
2024/02/08 05:03:03;;;;;;;;;;;;;;;19.20;61.88;100237.84;7399121;19;1252;-71
2024/02/08 05:05:31;;;;;;;;;;;;;;;19.22;61.85;100211.78;7399205;19;1040;-81
2024/02/08 05:08:01;;;;;;;;;;;;;;;19.25;61.67;100225.69;7396419;19;1476;-79
2024/02/08 05:10:30;;;;;;;;;;;;;;;19.25;61.78;100230.22;7400710;19;1873;-80
2024/02/08 05:13:03;;;;;;;;;;;;;;;19.33;61.53;100251.75;7398438;19;1399;-71
2024/02/08 05:15:32;;;;;;;;;;;;;;;19.38;61.55;100262.91;7396816;19;1547;-80
2024/02/08 05:18:06;;;;;;;;;;;;;;;19.46;61.28;100246.06;7397001;19;1343;-71
2024/02/08 05:20:36;;;;;;;;;;;;;;;19.41;61.48;100235.75;7399139;19;1493;-80
2024/02/08 05:23:04;;;;;;;;;;;;;;;19.47;61.32;100243.19;7401449;19;1237;-80
2024/02/08 05:25:35;;;;;;;;;;;;;;;19.51;61.40;100241.06;7398137;19;1170;-80
2024/02/08 05:28:05;;;;;;;;;;;;;;;19.56;61.44;100252.19;7405731;19;1956;-80
2024/02/08 05:30:34;;;;;;;;;;;;;;;19.62;61.75;100248.91;7397982;19;1833;-81
2024/02/08 05:33:03;;;;;;;;;;;;;;;19.61;61.58;100244.50;7406357;19;1758;-81
2024/02/08 05:35:34;;;;;;;;;;;;;;;19.60;62.26;100239.31;7409172;19;1115;-85
2024/02/08 05:38:03;;;;;;;;;;;;;;;19.45;62.27;100258.59;7410064;19;1190;-71
2024/02/08 05:40:33;;;;;;;;;;;;;;;19.48;62.01;100249.44;7403731;19;1474;-71
2024/02/08 05:43:02;;;;;;;;;;;;;;;19.46;62.11;100243.38;7404244;19;1246;-71
2024/02/08 05:45:33;;;;;;;;;;;;;;;19.44;61.84;100254.25;7404185;19;1453;-71
2024/02/08 05:48:05;;;;;;;;;;;;;;;19.43;61.87;100249.84;7404502;19;1757;-80
2024/02/08 05:50:37;;;;;;;;;;;;;;;19.41;61.94;100257.22;7402268;19;1830;-70
2024/02/08 05:53:09;;;;;;;;;;;;;;;19.48;61.96;100252.09;7402251;19;1547;-72
2024/02/08 05:55:40;;;;;;;;;;;;;;;19.45;61.88;100242.50;7403069;19;1969;-80
2024/02/08 05:58:16;;;;;;;;;;;;;;;19.39;61.88;100253.84;7400846;19;1592;-71
2024/02/08 06:00:52;;;;;;;;;;;;;;;19.41;61.71;100257.22;7405414;19;1594;-80
2024/02/08 06:03:27;;;;;;;;;;;;;;;19.47;61.61;100245.88;7403330;19;1874;-70
2024/02/08 06:06:06;;;;;;;;;;;;;;;19.44;61.57;100267.66;7400823;19;1087;-71
2024/02/08 06:08:39;;;;;;;;;;;;;;;19.42;61.50;100261.59;7405730;19;1828;-71
2024/02/08 06:11:16;;;;;;;;;;;;;;;19.47;61.46;100267.34;7402761;19;1861;-70
2024/02/08 06:13:50;;;;;;;;;;;;;;;19.45;61.64;100266.63;7405975;19;1091;-79
2024/02/08 06:16:26;;;;;;;;;;;;;;;19.38;61.50;100268.25;7404722;19;1636;-80
2024/02/08 06:19:07;;;;;;;;;;;;;;;19.39;61.57;100264.56;7405582;19;1542;-80
2024/02/08 06:21:45;;;;;;;;;;;;;;;19.40;61.64;100260.06;7405032;19;1769;-80
2024/02/08 06:27:01;;;;;;;;;;;;;;;19.37;61.18;100260.34;7402193;19;1539;-81
2024/02/08 06:29:38;;;;;;;;;;;;;;;19.39;61.15;100269.94;7401281;19;1263;-81
2024/02/08 06:32:23;;;;;;;;;;;;;;;19.46;60.99;100265.66;7402579;19;1580;-80
2024/02/08 06:34:55;;;;;;;;;;;;;;;19.49;61.24;100261.81;7406305;19;1445;-80
2024/02/08 06:37:31;;;;;;;;;;;;;;;19.46;60.91;100271.03;7402162;19;1000;-81
2024/02/08 06:40:00;;;;;;;;;;;;;;;19.53;60.92;100275.78;7403265;19;1460;-80
2024/02/08 06:48:14;;;;;;;;;;;;;;;19.74;60.76;100256.75;7398632;19;1467;-81
2024/02/08 07:39:46;;;;;;;;;;;;;;;19.27;61.27;100271.97;7396978;19;1256;-70
2024/02/08 07:42:29;;;;;;;;;;;;;;;19.11;61.44;100270.94;7399486;19;1583;-71
2024/02/08 07:44:57;;;;;;;;;;;;;;;19.01;61.58;100262.94;7400380;19;1272;-71
2024/02/08 07:47:27;;;;;;;;;;;;;;;18.85;62.12;100271.59;7398926;19;1868;-71
2024/02/08 07:49:57;;;;;;;;;;;;;;;18.88;62.12;100265.97;7398195;19;1844;-71
2024/02/08 07:52:29;;;;;;;;;;;;;;;19.27;61.29;100271.13;7397240;19;1980;-70
2024/02/08 07:55:14;;;;;;;;;;;;;;;19.34;60.95;100249.91;7398939;19;1094;-70
2024/02/08 07:57:48;;;;;;;;;;;;;;;19.22;61.15;100262.72;7397485;19;1527;-71
2024/02/08 08:00:32;;;;;;;;;;;;;;;19.15;61.38;100272.31;7396333;19;1304;-70
2024/02/08 08:03:01;;;;;;;;;;;;;;;18.99;61.50;100264.91;7395283;19;1438;-70
2024/02/08 08:05:33;;;;;;;;;;;;;;;18.91;61.93;100281.72;7398652;19;1556;-70
2024/02/08 08:08:02;;;;;;;;;;;;;;;18.95;61.75;100260.84;7398271;19;1072;-70
2024/02/08 08:10:33;;;;;;;;;;;;;;;19.35;60.88;100273.06;7394145;19;1867;-70
2024/02/08 08:13:06;;;;;;;;;;;;;;;19.39;60.69;100258.38;7396492;19;979;-79
2024/02/08 08:15:48;;;;;;;;;;;;;;;19.23;61.20;100267.06;7402123;19;1267;-77
2024/02/08 08:18:23;;;;;;;;;;;;;;;19.09;61.47;100252.31;7403001;19;1231;-77
2024/02/08 08:20:59;;;;;;;;;;;;;;;18.94;61.89;100260.00;7399387;19;1250;-78
2024/02/08 08:23:27;;;;;;;;;;;;;;;18.89;62.09;100259.59;7396850;19;1741;-78
2024/02/08 08:28:52;;;;;;;;;;;;;;;19.53;60.60;100273.09;7394157;19;1264;-71
2024/02/08 08:35:30;;;;;;;;;;;;;;;19.36;60.95;100270.25;7395819;19;1570;-71
2024/02/08 08:37:02;;;;;;;;;;;;;;;19.17;61.37;100264.97;7399314;19;1392;-79
2024/02/08 08:42:16;;;;;;;;;;;;;;;19.07;61.60;100271.22;7399266;19;1621;-79
2024/02/08 08:44:57;;;;;;;;;;;;;;;19.15;61.39;100273.16;7399470;19;1841;-79
2024/02/08 08:47:28;;;;;;;;;;;;;;;19.59;60.48;100264.44;7392575;19;1501;-71
2024/02/08 08:49:56;;;;;;;;;;;;;;;19.57;58.54;100269.97;7396980;19;1314;-79
2024/02/08 08:52:46;;;;;;;;;;;;;;;19.50;57.28;100270.72;7398226;19;1843;-79
2024/02/08 08:55:17;;;;;;;;;;;;;;;19.31;59.01;100271.69;7396458;19;1425;-71
2024/02/08 08:57:53;;;;;;;;;;;;;;;19.19;59.11;100268.34;7394582;19;1495;-71
2024/02/08 09:00:32;;;;;;;;;;;;;;;19.13;59.12;100268.94;7395093;19;1410;-71
2024/02/08 09:03:04;;;;;;;;;;;;;;;19.03;59.69;100272.50;7401085;19;1840;-71
2024/02/08 09:05:36;;;;;;;;;;;;;;;19.27;59.29;100268.44;7404561;19;1755;-71
2024/02/08 09:08:08;;;;;;;;;;;;;;;19.74;57.90;100273.69;7403984;19;1583;-71
2024/02/08 09:10:40;;;;;;;;;;;;;;;19.62;58.20;100259.63;7403493;19;1856;-72
2024/02/08 09:13:08;;;;;;;;;;;;;;;19.46;58.64;100264.81;7400826;19;1510;-71
2024/02/08 09:15:48;;;;;;;;;;;;;;;19.43;58.62;100270.47;7403275;19;1114;-71
2024/02/08 09:18:16;;;;;;;;;;;;;;;19.27;59.01;100271.13;7405800;19;1034;-71
2024/02/08 09:20:47;;;;;;;;;;;;;;;19.18;59.35;100263.97;7403767;19;1737;-71
2024/02/08 09:23:18;;;;;;;;;;;;;;;19.03;60.00;100258.28;7402472;19;1976;-71
2024/02/08 09:25:47;;;;;;;;;;;;;;;19.35;58.94;100260.50;7400779;19;1044;-71
2024/02/08 09:28:35;;;;;;;;;;;;;;;19.74;57.99;100252.25;7403937;19;1136;-71
2024/02/08 09:31:16;;;;;;;;;;;;;;;19.53;58.56;100251.66;7390872;19;1865;-71
2024/02/08 09:33:50;;;;;;;;;;;;;;;19.39;58.94;100253.00;7402948;19;1792;-71
2024/02/08 09:36:18;;;;;;;;;;;;;;;19.26;59.37;100243.50;7403337;19;1014;-71
2024/02/08 09:38:50;;;;;;;;;;;;;;;19.18;59.61;100245.22;7403032;19;1786;-71
2024/02/08 09:41:23;;;;;;;;;;;;;;;19.17;59.50;100241.69;7403332;19;1860;-71
2024/02/08 09:43:56;;;;;;;;;;;;;;;19.18;59.73;100239.84;7404270;19;1816;-71
2024/02/08 09:49:13;;;;;;;;;;;;;;;19.66;58.32;100244.09;7403422;19;1566;-72
2024/02/08 09:51:51;;;;;;;;;;;;;;;19.53;58.71;100241.75;7401600;19;1844;-71
2024/02/08 09:54:27;;;;;;;;;;;;;;;19.37;58.95;100228.19;7402346;19;1552;-72
2024/02/08 09:57:01;;;;;;;;;;;;;;;19.26;59.34;100238.13;7403820;19;1743;-71
2024/02/08 10:02:24;;;;;;;;;;;;;;;19.13;59.69;100236.78;7406194;19;1697;-81
2024/02/08 10:04:50;;;;;;;;;;;;;;;19.62;58.65;100229.28;7402589;19;1547;-81
2024/02/08 10:07:19;;;;;;;;;;;;;;;20.04;57.71;100228.69;7406194;19;1831;-81
2024/02/08 10:09:59;;;;;;;;;;;;;;;20.39;56.92;100241.19;7406420;19;1755;-80
2024/02/08 10:12:40;;;;;;;;;;;;;;;20.63;56.64;100208.31;7402395;19;1863;-82
2024/02/08 10:15:14;;;;;;;;;;;;;;;20.17;57.47;100226.41;7406617;19;1487;-81
2024/02/08 10:17:52;;;;;;;;;;;;;;;19.90;58.25;100223.88;7407941;19;1846;-81
2024/02/08 10:20:32;;;;;;;;;;;;;;;19.71;58.68;100230.19;7404302;19;1767;-81
2024/02/08 10:23:09;;;;;;;;;;;;;;;19.86;58.78;100202.72;7406536;19;1660;-81
2024/02/08 10:28:26;;;;;;;;;;;;;;;20.56;57.08;100201.00;7407233;19;757;-82
2024/02/08 10:30:57;;;;;;;;;;;;;;;20.69;56.77;100195.22;7400905;19;2081;-81
2024/02/08 10:33:35;;;;;;;;;;;;;;;20.70;56.88;100202.28;7405254;19;1397;-82
2024/02/08 10:36:07;;;;;;;;;;;;;;;20.68;56.74;100196.22;7404582;19;1605;-79
2024/02/08 10:38:55;;;;;;;;;;;;;;;20.64;57.20;100184.97;7402029;19;1707;-80
2024/02/08 10:41:28;;;;;;;;;;;;;;;20.68;57.02;100204.28;7399993;19;1659;-71
2024/02/08 10:43:58;;;;;;;;;;;;;;;20.78;56.93;100196.94;7402954;19;1623;-71
2024/02/08 10:46:31;;;;;;;;;;;;;;;20.89;56.71;100164.41;7397411;19;1676;-71
2024/02/08 10:49:08;;;;;;;;;;;;;;;20.94;56.41;100162.06;7400477;19;1747;-71
2024/02/08 10:51:43;;;;;;;;;;;;;;;20.91;56.74;100159.72;7397645;19;1839;-71
2024/02/08 10:54:22;;;;;;;;;;;;;;;20.85;56.25;100149.63;7398458;19;1714;-71
2024/02/08 10:57:06;;;;;;;;;;;;;;;20.84;56.37;100158.69;7397991;19;1782;-71
2024/02/08 10:59:39;;;;;;;;;;;;;;;20.48;57.25;100163.38;7400592;19;1796;-71
2024/02/08 11:02:08;;;;;;;;;;;;;;;20.23;58.08;100157.84;7399011;19;1424;-71
2024/02/08 11:04:40;;;;;;;;;;;;;;;20.02;58.45;100166.28;7399828;19;1321;-71
2024/02/08 11:07:21;;;;;;;;;;;;;;;19.92;58.92;100173.56;7399513;19;1461;-71
2024/02/08 11:09:52;;;;;;;;;;;;;;;20.16;58.32;100154.94;7401402;19;1008;-71
2024/02/08 11:12:23;;;;;;;;;;;;;;;20.62;57.22;100142.13;7397269;19;1911;-71
2024/02/08 11:14:56;;;;;;;;;;;;;;;20.36;57.59;100141.31;7400569;19;1914;-71
2024/02/08 11:17:30;;;;;;;;;;;;;;;20.10;58.40;100160.13;7398980;19;1836;-71
2024/02/08 11:20:03;;;;;;;;;;;;;;;19.89;58.84;100144.34;7401167;19;1059;-71
2024/02/08 11:22:35;;;;;;;;;;;;;;;19.82;59.31;100144.16;7400784;19;1526;-71
2024/02/08 11:27:51;;;;;;;;;;;;;;;20.52;57.52;100149.44;7399625;19;1812;-71
2024/02/08 11:30:22;;;;;;;;;;;;;;;20.15;58.30;100126.41;7402192;19;1483;-80
2024/02/08 11:33:01;;;;;;;;;;;;;;;19.94;58.67;100128.66;7394984;19;1845;-80
2024/02/08 11:35:35;;;;;;;;;;;;;;;19.82;58.88;100125.38;7401756;19;1942;-81
2024/02/08 11:38:15;;;;;;;;;;;;;;;19.92;59.01;100136.00;7401759;19;1781;-80
2024/02/08 11:40:45;;;;;;;;;;;;;;;20.40;57.65;100127.41;7399876;19;1931;-80
2024/02/08 11:43:19;;;;;;;;;;;;;;;20.34;57.56;100124.53;7399306;19;1114;-80
2024/02/08 11:45:52;;;;;;;;;;;;;;;20.04;58.41;100124.84;7396631;19;1927;-72
2024/02/08 11:48:29;;;;;;;;;;;;;;;19.90;58.74;100119.22;7398880;19;1202;-71
2024/02/08 11:51:11;;;;;;;;;;;;;;;19.76;59.32;100121.47;7394990;19;1855;-71
2024/02/08 11:53:44;;;;;;;;;;;;;;;20.04;58.63;100119.47;7399784;19;1272;-72
2024/02/08 11:56:13;;;;;;;;;;;;;;;20.41;57.64;100098.69;7397902;19;1710;-71
2024/02/08 11:58:43;;;;;;;;;;;;;;;20.30;57.84;100104.38;7395880;19;959;-72
2024/02/08 12:01:13;;;;;;;;;;;;;;;20.02;58.62;100104.53;7400463;19;1513;-72
2024/02/08 12:03:44;;;;;;;;;;;;;;;19.89;58.92;100109.47;7400325;19;1122;-71
2024/02/08 12:06:34;;;;;;;;;;;;;;;19.81;59.37;100103.03;7400677;19;1510;-71
2024/02/08 12:09:06;;;;;;;;;;;;;;;20.18;58.42;100098.44;7399164;19;1482;-72
2024/02/08 12:11:35;;;;;;;;;;;;;;;20.57;57.34;100087.16;7397940;19;1857;-71
2024/02/08 12:14:06;;;;;;;;;;;;;;;20.22;58.14;100102.47;7400196;19;1661;-71
2024/02/08 12:16:35;;;;;;;;;;;;;;;19.98;58.62;100103.19;7401912;19;1754;-71
2024/02/08 12:19:06;;;;;;;;;;;;;;;19.88;58.98;100095.22;7398157;19;1444;-71
2024/02/08 12:21:35;;;;;;;;;;;;;;;19.86;59.16;100090.00;7397701;19;1452;-71
2024/02/08 12:24:07;;;;;;;;;;;;;;;20.31;58.00;100071.13;7396345;19;1939;-72
2024/02/08 12:26:38;;;;;;;;;;;;;;;20.50;57.51;100080.78;7396394;19;1819;-71
2024/02/08 12:29:16;;;;;;;;;;;;;;;20.19;58.09;100086.66;7396196;19;1873;-80
2024/02/08 12:31:47;;;;;;;;;;;;;;;19.98;58.53;100073.66;7395050;19;1875;-82
2024/02/08 12:34:17;;;;;;;;;;;;;;;19.79;59.12;100070.16;7402714;19;1075;-83
2024/02/08 12:36:47;;;;;;;;;;;;;;;19.93;59.00;100078.66;7400393;19;1034;-82
2024/02/08 12:39:34;;;;;;;;;;;;;;;20.37;57.85;100065.09;7400620;19;1505;-83
2024/02/08 12:42:04;;;;;;;;;;;;;;;20.33;57.70;100061.06;7400193;19;1167;-72
2024/02/08 12:44:36;;;;;;;;;;;;;;;20.00;58.61;100080.53;7400197;19;1372;-72
2024/02/08 12:47:06;;;;;;;;;;;;;;;19.82;58.87;100071.72;7399550;19;1844;-72
2024/02/08 12:49:34;;;;;;;;;;;;;;;19.81;59.13;100086.94;7399987;19;1768;-72
2024/02/08 12:52:04;;;;;;;;;;;;;;;20.24;58.39;100087.88;7396614;19;2238;-72
2024/02/08 12:54:36;;;;;;;;;;;;;;;20.48;57.60;100083.63;7396213;19;1588;-72
2024/02/08 12:57:11;;;;;;;;;;;;;;;20.55;57.30;100089.19;7400326;19;1118;-82
2024/02/08 12:59:39;;;;;;;;;;;;;;;20.07;58.21;100096.84;7397789;19;1163;-82
2024/02/08 13:02:16;;;;;;;;;;;;;;;19.93;58.81;100087.53;7400898;19;1575;-82
2024/02/08 13:04:48;;;;;;;;;;;;;;;19.77;59.18;100085.56;7399252;19;1508;-82
2024/02/08 13:07:17;;;;;;;;;;;;;;;19.97;58.87;100086.22;7399871;19;1564;-73
2024/02/08 13:09:48;;;;;;;;;;;;;;;20.42;57.80;100086.97;7400229;19;1836;-72
2024/02/08 13:12:19;;;;;;;;;;;;;;;20.55;57.32;100081.13;7399527;19;1843;-72
2024/02/08 13:15:02;;;;;;;;;;;;;;;20.13;58.30;100079.25;7396562;19;1848;-72
2024/02/08 13:17:33;;;;;;;;;;;;;;;19.77;59.15;100069.47;7396884;19;1836;-72
2024/02/08 13:20:11;;;;;;;;;;;;;;;19.68;59.43;100095.38;7393914;19;1078;-72
2024/02/08 13:22:41;;;;;;;;;;;;;;;19.91;59.28;100094.06;7398113;19;1451;-82
2024/02/08 13:25:15;;;;;;;;;;;;;;;20.27;58.13;100074.16;7401134;19;1451;-82
2024/02/08 13:27:44;;;;;;;;;;;;;;;20.65;57.13;100079.16;7398876;19;1503;-72
2024/02/08 13:30:17;;;;;;;;;;;;;;;20.78;56.80;100086.78;7398992;19;1393;-82
2024/02/08 13:32:49;;;;;;;;;;;;;;;20.73;56.86;100086.41;7392313;19;1874;-82
2024/02/08 13:35:22;;;;;;;;;;;;;;;20.73;56.81;100089.09;7399700;19;1604;-82
2024/02/08 13:38:00;;;;;;;;;;;;;;;20.76;56.89;100086.09;7395947;19;1405;-82
2024/02/08 13:40:42;;;;;;;;;;;;;;;20.70;57.04;100090.28;7396822;19;1648;-72
2024/02/08 13:43:11;;;;;;;;;;;;;;;20.18;58.16;100085.84;7397607;19;1528;-80
2024/02/08 13:45:41;;;;;;;;;;;;;;;20.00;58.63;100066.28;7395128;19;1518;-80
2024/02/08 13:48:14;;;;;;;;;;;;;;;19.84;59.18;100086.66;7395584;19;960;-80
2024/02/08 13:50:43;;;;;;;;;;;;;;;19.79;59.61;100088.94;7399055;19;1548;-71
2024/02/08 13:53:14;;;;;;;;;;;;;;;20.10;58.65;100079.59;7403529;19;1865;-80
2024/02/08 13:55:52;;;;;;;;;;;;;;;20.45;57.74;100065.13;7403689;19;944;-71
2024/02/08 13:58:20;;;;;;;;;;;;;;;20.70;56.93;100082.22;7405312;19;1922;-80
2024/02/08 14:00:49;;;;;;;;;;;;;;;20.72;57.08;100090.13;7403826;19;1936;-79
2024/02/08 14:03:19;;;;;;;;;;;;;;;20.67;57.24;100082.53;7405128;19;1768;-72
2024/02/08 14:05:50;;;;;;;;;;;;;;;20.71;56.93;100086.59;7402966;19;1484;-71
2024/02/08 14:08:23;;;;;;;;;;;;;;;20.73;57.04;100078.34;7399691;19;1470;-71
2024/02/08 14:10:54;;;;;;;;;;;;;;;20.76;57.02;100086.09;7403487;19;1390;-72
2024/02/08 14:13:28;;;;;;;;;;;;;;;20.73;57.06;100076.53;7401242;19;1853;-80
2024/02/08 14:16:00;;;;;;;;;;;;;;;20.64;57.30;100074.81;7403174;19;944;-73
2024/02/08 14:18:34;;;;;;;;;;;;;;;20.56;57.46;100070.22;7402495;19;1545;-80
2024/02/08 14:21:03;;;;;;;;;;;;;;;20.69;57.31;100083.25;7405717;19;1602;-76
2024/02/08 14:23:37;;;;;;;;;;;;;;;20.70;57.34;100073.31;7399843;19;1530;-80
2024/02/08 14:26:31;;;;;;;;;;;;;;;20.66;57.12;100065.59;7405491;19;1409;-80
2024/02/08 14:29:00;;;;;;;;;;;;;;;20.71;57.15;100091.97;7401179;19;999;-80
2024/02/08 14:31:29;;;;;;;;;;;;;;;20.61;57.37;100083.19;7392556;19;1928;-80
2024/02/08 14:33:58;;;;;;;;;;;;;;;20.62;57.42;100085.72;7402630;19;1837;-71
2024/02/08 14:36:28;;;;;;;;;;;;;;;20.62;57.41;100080.34;7401832;19;1589;-71
2024/02/08 14:38:56;;;;;;;;;;;;;;;20.68;57.23;100081.53;7403037;19;1506;-71
2024/02/08 14:41:36;;;;;;;;;;;;;;;20.63;57.33;100075.81;7400348;19;1439;-71
2024/02/08 14:44:17;;;;;;;;;;;;;;;20.64;57.43;100081.03;7400004;19;1434;-72
2024/02/08 14:46:46;;;;;;;;;;;;;;;20.65;57.37;100080.03;7398085;19;1565;-72
2024/02/08 14:49:23;;;;;;;;;;;;;;;20.65;57.33;100074.66;7399685;19;1129;-71
2024/02/08 14:51:58;;;;;;;;;;;;;;;20.62;57.30;100079.50;7400611;19;1412;-72
2024/02/08 14:54:26;;;;;;;;;;;;;;;20.64;57.39;100078.34;7394609;19;1869;-72
2024/02/08 14:57:09;;;;;;;;;;;;;;;20.61;57.41;100083.19;7401433;19;1746;-72
2024/02/08 14:59:49;;;;;;;;;;;;;;;20.58;57.55;100088.88;7397577;19;1840;-72
2024/02/08 15:02:18;;;;;;;;;;;;;;;20.67;57.38;100074.47;7402280;19;1781;-81
2024/02/08 15:04:52;;;;;;;;;;;;;;;20.66;57.26;100081.69;7399827;19;1894;-80
2024/02/08 15:10:07;;;;;;;;;;;;;;;20.55;57.75;100068.56;7400540;19;1247;-80
2024/02/08 15:12:41;;;;;;;;;;;;;;;20.54;57.61;100079.47;7399631;19;1846;-81
2024/02/08 15:15:18;;;;;;;;;;;;;;;20.61;57.53;100083.19;7400400;19;1530;-80
2024/02/08 15:17:49;;;;;;;;;;;;;;;20.56;57.64;100080.13;7397761;19;1462;-80